Time;durP1;ratioP1;P1;durP2;ratioP2;P2;SDS_P1;SDS_P2;PMS_P1;PMS_P2;Temp;Humidity;BMP_temperature;BMP_pressure;BME280_temperature;BME280_humidity;BME280_pressure;Samples;Min_cycle;Max_cycle;Signal;HPM_P1;HPM_P2
2022/07/01 00:00:09;;;;;;;;;;;;;;;11.16;52.99;96335.75;6370994;27;19923;-68
2022/07/01 00:03:15;;;;;;;;;;;;;;;11.16;53.08;96337.56;6372078;27;20052;-67
2022/07/01 00:06:20;;;;;;;;;;;;;;;11.16;53.26;96337.56;6372161;27;19938;-68
2022/07/01 00:09:23;;;;;;;;;;;;;;;11.11;52.96;96337.88;6371887;27;19923;-68
2022/07/01 00:12:24;;;;;;;;;;;;;;;11.08;53.33;96343.38;6371020;27;19930;-68
2022/07/01 00:15:27;;;;;;;;;;;;;;;11.08;53.31;96353.09;6370852;27;19946;-68
2022/07/01 00:18:31;;;;;;;;;;;;;;;11.09;53.54;96350.31;6371810;27;19923;-68
2022/07/01 00:21:32;;;;;;;;;;;;;;;11.12;54.84;96350.09;6370534;27;19924;-68
2022/07/01 00:24:35;;;;;;;;;;;;;;;11.15;54.18;96349.88;6370161;27;19924;-68
2022/07/01 00:27:42;;;;;;;;;;;;;;;11.16;53.56;96356.81;6371597;27;20014;-67
2022/07/01 00:30:45;;;;;;;;;;;;;;;11.15;52.82;96349.88;6371781;27;19927;-67
2022/07/01 00:33:46;;;;;;;;;;;;;;;11.13;53.04;96346.50;6370482;27;19923;-68
2022/07/01 00:36:47;;;;;;;;;;;;;;;11.15;54.50;96349.00;6370674;27;19923;-68
2022/07/01 00:39:51;;;;;;;;;;;;;;;11.16;54.37;96355.97;6370383;28;20358;-67
2022/07/01 00:42:52;;;;;;;;;;;;;;;11.17;54.13;96347.94;6370652;28;19930;-67
2022/07/01 00:45:53;;;;;;;;;;;;;;;11.21;53.25;96354.69;6370950;28;19923;-68
2022/07/01 00:48:58;;;;;;;;;;;;;;;11.20;53.62;96350.34;6371034;28;19931;-68
2022/07/01 00:51:59;;;;;;;;;;;;;;;11.28;53.39;96354.22;6370305;28;19923;-68
2022/07/01 00:55:04;;;;;;;;;;;;;;;11.35;53.25;96364.16;6370380;28;20064;-67
2022/07/01 00:58:05;;;;;;;;;;;;;;;11.46;52.89;96363.31;6371356;28;20436;-69
2022/07/01 01:01:07;;;;;;;;;;;;;;;11.58;52.66;96362.41;6370682;28;19923;-69
2022/07/01 01:04:08;;;;;;;;;;;;;;;11.68;52.63;96368.63;6370424;28;19976;-67
2022/07/01 01:07:11;;;;;;;;;;;;;;;11.80;52.21;96364.19;6371041;28;19923;-67
2022/07/01 01:10:13;;;;;;;;;;;;;;;11.91;51.82;96374.78;6370292;28;19946;-68
2022/07/01 01:13:16;;;;;;;;;;;;;;;11.97;52.40;96368.19;6370486;28;19923;-68
2022/07/01 01:16:21;;;;;;;;;;;;;;;12.03;52.22;96373.00;6370847;28;19924;-67
2022/07/01 01:19:22;;;;;;;;;;;;;;;12.10;52.13;96363.63;6370675;28;19923;-67
2022/07/01 01:22:26;;;;;;;;;;;;;;;12.19;52.05;96366.50;6370957;28;19924;-67
2022/07/01 01:25:27;;;;;;;;;;;;;;;12.28;51.80;96371.88;6369334;28;19923;-68
2022/07/01 01:28:31;;;;;;;;;;;;;;;12.33;52.01;96376.78;6369973;28;19934;-69
2022/07/01 01:31:35;;;;;;;;;;;;;;;12.39;52.12;96384.22;6369739;28;19919;-68
2022/07/01 01:34:42;;;;;;;;;;;;;;;12.45;51.97;96375.81;6371378;27;20316;-67
2022/07/01 01:37:46;;;;;;;;;;;;;;;12.50;52.62;96378.91;6375744;27;20346;-68
2022/07/01 01:40:49;;;;;;;;;;;;;;;12.55;51.82;96379.38;6374800;27;19931;-67
2022/07/01 01:43:53;;;;;;;;;;;;;;;12.64;51.97;96387.53;6375334;27;19927;-67
2022/07/01 01:46:56;;;;;;;;;;;;;;;12.72;52.08;96395.66;6375375;27;19923;-67
2022/07/01 01:49:59;;;;;;;;;;;;;;;12.81;51.99;96400.19;6374667;27;19923;-67
2022/07/01 01:53:01;;;;;;;;;;;;;;;12.90;51.67;96401.25;6374243;27;19945;-67
2022/07/01 01:56:05;;;;;;;;;;;;;;;13.02;51.67;96406.38;6355855;27;19930;-68
2022/07/01 01:59:08;;;;;;;;;;;;;;;13.11;51.61;96406.59;6374828;27;19919;-67
2022/07/01 02:02:12;;;;;;;;;;;;;;;13.18;51.64;96402.47;6374497;27;19923;-67
2022/07/01 02:05:15;;;;;;;;;;;;;;;13.28;51.63;96413.97;6373727;27;19920;-68
2022/07/01 02:08:19;;;;;;;;;;;;;;;13.39;51.04;96413.94;6355655;27;19930;-68
2022/07/01 02:11:22;;;;;;;;;;;;;;;13.48;51.09;96418.44;6374489;27;19920;-68
2022/07/01 02:14:23;;;;;;;;;;;;;;;13.57;51.16;96423.91;6373431;27;19923;-67
2022/07/01 02:17:29;;;;;;;;;;;;;;;13.65;50.77;96416.19;6374144;27;19923;-68
2022/07/01 02:20:30;;;;;;;;;;;;;;;13.77;51.10;96422.22;6373779;27;19930;-68
2022/07/01 02:23:31;;;;;;;;;;;;;;;13.87;50.80;96423.97;6373635;27;19966;-67
2022/07/01 02:26:32;;;;;;;;;;;;;;;13.99;51.53;96434.47;6373349;27;19923;-68
2022/07/01 02:29:33;;;;;;;;;;;;;;;14.08;50.89;96428.38;6373242;27;19943;-68
2022/07/01 02:32:34;;;;;;;;;;;;;;;14.20;50.86;96426.47;6373025;27;19923;-67
2022/07/01 02:35:40;;;;;;;;;;;;;;;14.32;50.35;96426.28;6374040;27;20006;-67
2022/07/01 02:38:44;;;;;;;;;;;;;;;14.43;50.79;96427.13;6373890;27;19919;-68
2022/07/01 02:45:05;;;;;;;;;;;;;;;14.60;50.22;96429.16;6372952;27;19923;-67
2022/07/01 02:48:08;;;;;;;;;;;;;;;14.62;50.14;96431.69;6371962;27;19935;-67
2022/07/01 02:51:12;;;;;;;;;;;;;;;14.68;50.40;96428.50;6373472;27;19923;-67
2022/07/01 02:54:17;;;;;;;;;;;;;;;14.76;49.96;96445.38;6373743;27;19923;-67
2022/07/01 02:57:18;;;;;;;;;;;;;;;14.86;50.00;96439.25;6372503;27;20022;-67
2022/07/01 03:00:22;;;;;;;;;;;;;;;15.04;49.45;96437.63;6372807;27;19988;-67
2022/07/01 03:03:27;;;;;;;;;;;;;;;15.32;48.84;96441.28;6373387;27;19923;-68
2022/07/01 03:06:33;;;;;;;;;;;;;;;15.65;48.23;96436.50;6372646;27;19933;-67
2022/07/01 03:09:34;;;;;;;;;;;;;;;16.02;47.95;96439.28;6371714;27;20331;-67
2022/07/01 03:12:39;;;;;;;;;;;;;;;16.42;47.33;96434.63;6372957;27;20405;-68
2022/07/01 03:15:43;;;;;;;;;;;;;;;16.85;46.46;96447.31;6372608;27;20022;-68
2022/07/01 03:18:44;;;;;;;;;;;;;;;17.27;46.00;96444.13;6372463;27;19923;-68
2022/07/01 03:21:47;;;;;;;;;;;;;;;17.62;45.38;96450.41;6372745;27;19946;-68
2022/07/01 03:24:49;;;;;;;;;;;;;;;17.91;45.00;96445.66;6371562;27;19923;-67
2022/07/01 03:27:50;;;;;;;;;;;;;;;18.20;44.41;96444.50;6372734;27;19930;-67
2022/07/01 03:30:53;;;;;;;;;;;;;;;18.52;44.17;96443.03;6372732;27;20429;-67
2022/07/01 03:33:57;;;;;;;;;;;;;;;18.82;43.39;96445.22;6371825;27;19924;-67
2022/07/01 03:36:58;;;;;;;;;;;;;;;19.18;43.18;96444.13;6371856;27;20304;-68
2022/07/01 03:39:59;;;;;;;;;;;;;;;19.52;42.76;96452.00;6371929;27;19923;-67
2022/07/01 03:43:03;;;;;;;;;;;;;;;19.77;42.35;96452.06;6372334;27;19924;-68
2022/07/01 03:46:06;;;;;;;;;;;;;;;19.93;42.21;96457.41;6371909;27;19957;-68
2022/07/01 03:49:08;;;;;;;;;;;;;;;20.08;41.84;96447.69;6371415;27;19984;-68
2022/07/01 03:52:12;;;;;;;;;;;;;;;20.25;41.71;96453.00;6371915;27;19923;-67
2022/07/01 03:55:16;;;;;;;;;;;;;;;20.37;41.51;96454.31;6371173;27;19923;-67
2022/07/01 03:58:17;;;;;;;;;;;;;;;20.67;40.73;96462.63;6371330;27;19926;-67
2022/07/01 04:01:20;;;;;;;;;;;;;;;21.17;40.07;96466.72;6371669;27;19923;-67
2022/07/01 04:04:22;;;;;;;;;;;;;;;21.83;38.94;96465.34;6370870;27;20401;-67
2022/07/01 04:07:26;;;;;;;;;;;;;;;22.42;38.00;96470.03;6371882;27;19919;-67
2022/07/01 04:10:32;;;;;;;;;;;;;;;22.96;37.23;96466.25;6371867;27;19923;-68
2022/07/01 04:13:39;;;;;;;;;;;;;;;23.47;36.57;96479.66;6353779;27;19923;-67
2022/07/01 04:16:43;;;;;;;;;;;;;;;23.96;35.90;96477.06;6370825;27;19930;-68
2022/07/01 04:19:45;;;;;;;;;;;;;;;24.48;35.87;96488.47;6370818;27;19924;-66
2022/07/01 04:22:46;;;;;;;;;;;;;;;25.01;34.77;96482.56;6370728;27;19935;-68
2022/07/01 04:25:50;;;;;;;;;;;;;;;25.57;34.43;96492.34;6371462;27;20292;-67
2022/07/01 04:28:54;;;;;;;;;;;;;;;26.03;32.98;96488.94;6370411;27;20372;-68
2022/07/01 04:31:56;;;;;;;;;;;;;;;26.38;32.56;96495.81;6370694;27;19919;-67
2022/07/01 04:34:59;;;;;;;;;;;;;;;26.50;31.67;96489.78;6371128;27;19923;-67
2022/07/01 04:38:03;;;;;;;;;;;;;;;26.32;31.80;96496.63;6371191;27;19984;-67
2022/07/01 04:44:30;;;;;;;;;;;;;;;26.48;31.98;96503.47;6371320;28;20060;-67
2022/07/01 04:47:35;;;;;;;;;;;;;;;26.43;30.12;96501.38;6371258;28;19923;-67
2022/07/01 04:50:36;;;;;;;;;;;;;;;26.50;31.43;96505.97;6371310;28;19923;-67
2022/07/01 04:53:42;;;;;;;;;;;;;;;26.86;29.92;96498.25;6371171;28;20391;-67
2022/07/01 04:56:46;;;;;;;;;;;;;;;26.52;30.10;96506.59;6371134;28;19923;-68
2022/07/01 04:59:47;;;;;;;;;;;;;;;26.65;27.92;96495.81;6371005;28;20486;-68
2022/07/01 05:02:48;;;;;;;;;;;;;;;27.84;28.77;96499.16;6370325;28;19923;-67
2022/07/01 05:05:51;;;;;;;;;;;;;;;31.40;26.15;96512.13;6371024;28;19931;-67
2022/07/01 05:08:55;;;;;;;;;;;;;;;35.36;22.39;96517.06;6371203;27;19968;-67
2022/07/01 05:12:00;;;;;;;;;;;;;;;39.04;17.18;96521.84;6375686;27;19923;-69
2022/07/01 05:15:04;;;;;;;;;;;;;;;42.43;13.75;96526.22;6376209;27;19927;-67
2022/07/01 05:24:54;;;;;;;;;;;;;;;45.00;12.90;96519.38;6375878;27;20431;-67
2022/07/01 05:27:58;;;;;;;;;;;;;;;45.29;15.44;96525.38;6375731;27;20021;-67
2022/07/01 05:30:59;;;;;;;;;;;;;;;46.07;10.75;96517.47;6374998;27;19923;-67
2022/07/01 05:34:06;;;;;;;;;;;;;;;48.07;10.74;96520.94;6374719;27;20023;-67
2022/07/01 05:37:10;;;;;;;;;;;;;;;49.55;10.83;96523.09;6375555;27;20365;-67
2022/07/01 05:40:13;;;;;;;;;;;;;;;48.81;11.71;96517.94;6375501;27;20014;-67
2022/07/01 05:43:17;;;;;;;;;;;;;;;47.61;12.00;96506.28;6374288;27;19923;-67
2022/07/01 05:46:22;;;;;;;;;;;;;;;46.68;11.75;96505.06;6375090;27;19923;-67
2022/07/01 05:49:23;;;;;;;;;;;;;;;47.05;10.59;96508.78;6374147;27;19919;-67
2022/07/01 05:52:25;;;;;;;;;;;;;;;48.90;7.94;96521.41;6374166;27;19930;-67
2022/07/01 05:55:26;;;;;;;;;;;;;;;50.87;10.32;96525.25;6356399;27;19919;-67
2022/07/01 05:58:29;;;;;;;;;;;;;;;52.26;9.98;96524.81;6374925;27;19923;-67
2022/07/01 06:01:35;;;;;;;;;;;;;;;53.16;8.18;96528.72;6374878;27;20392;-67
2022/07/01 06:04:37;;;;;;;;;;;;;;;53.49;8.18;96524.22;6356244;27;19981;-67
2022/07/01 06:07:40;;;;;;;;;;;;;;;52.49;8.35;96519.13;6374517;27;20022;-67
2022/07/01 06:10:41;;;;;;;;;;;;;;;51.50;9.50;96513.63;6373793;27;20443;-67
2022/07/01 06:13:46;;;;;;;;;;;;;;;49.50;9.87;96503.78;6373993;27;19931;-67
2022/07/01 06:16:52;;;;;;;;;;;;;;;49.88;9.21;96512.31;6373781;27;20328;-68
2022/07/01 06:19:56;;;;;;;;;;;;;;;50.87;8.17;96514.03;6374509;27;19924;-66
2022/07/01 06:22:59;;;;;;;;;;;;;;;49.30;8.56;96506.50;6373056;27;20304;-67
2022/07/01 06:26:03;;;;;;;;;;;;;;;47.84;8.59;96500.28;6374068;27;19929;-66
2022/07/01 06:29:06;;;;;;;;;;;;;;;46.46;8.43;96495.91;6374286;27;19924;-67
2022/07/01 06:32:08;;;;;;;;;;;;;;;42.89;10.46;96480.81;6372752;27;19924;-66
2022/07/01 06:35:12;;;;;;;;;;;;;;;40.16;11.96;96470.88;6372985;27;19950;-67
2022/07/01 06:38:18;;;;;;;;;;;;;;;38.38;13.58;96468.19;6372802;27;19946;-68
2022/07/01 06:41:28;;;;;;;;;;;;;;;37.68;13.32;96480.19;6373614;27;19923;-68
2022/07/01 06:44:31;;;;;;;;;;;;;;;40.23;11.82;96480.72;6355641;27;20312;-67
2022/07/01 06:47:32;;;;;;;;;;;;;;;43.97;10.03;96493.34;6372547;27;19930;-67
2022/07/01 06:50:33;;;;;;;;;;;;;;;45.86;8.73;96500.75;6372596;27;20443;-67
2022/07/01 06:53:34;;;;;;;;;;;;;;;46.66;8.67;96499.84;6372771;27;19923;-66
2022/07/01 06:56:41;;;;;;;;;;;;;;;44.65;9.65;96495.63;6373603;27;19996;-67
2022/07/01 06:59:44;;;;;;;;;;;;;;;45.50;9.38;96492.94;6373351;27;19923;-67
2022/07/01 07:02:45;;;;;;;;;;;;;;;48.01;6.78;96497.22;6372468;27;19923;-67
2022/07/01 07:05:46;;;;;;;;;;;;;;;48.17;8.74;96493.72;6373484;27;19923;-67
2022/07/01 07:08:49;;;;;;;;;;;;;;;45.48;9.27;96490.47;6372509;27;20418;-67
2022/07/01 07:11:50;;;;;;;;;;;;;;;42.12;11.04;96477.16;6372326;27;20392;-66
2022/07/01 07:14:54;;;;;;;;;;;;;;;40.05;12.19;96474.91;6371612;27;19923;-67
2022/07/01 07:17:57;;;;;;;;;;;;;;;38.63;12.48;96468.00;6372095;27;20026;-67
2022/07/01 07:21:00;;;;;;;;;;;;;;;37.36;12.66;96466.84;6372971;27;20389;-67
2022/07/01 07:24:01;;;;;;;;;;;;;;;36.75;13.24;96467.00;6371755;27;19923;-67
2022/07/01 07:27:03;;;;;;;;;;;;;;;37.10;12.52;96468.06;6371626;27;19923;-67
2022/07/01 07:30:04;;;;;;;;;;;;;;;37.04;12.68;96476.28;6371607;27;19923;-67
2022/07/01 07:33:08;;;;;;;;;;;;;;;36.79;12.75;96473.56;6371897;27;19924;-69
2022/07/01 07:36:11;;;;;;;;;;;;;;;37.57;12.37;96480.50;6372309;27;19931;-67
2022/07/01 07:39:12;;;;;;;;;;;;;;;38.31;12.28;96468.53;6371305;27;19919;-66
2022/07/01 07:42:13;;;;;;;;;;;;;;;38.35;12.22;96475.09;6372477;27;19923;-69
2022/07/01 07:45:20;;;;;;;;;;;;;;;37.85;11.81;96485.31;6354265;27;20001;-67
2022/07/01 07:48:25;;;;;;;;;;;;;;;39.18;11.26;96478.75;6371253;27;19930;-68
2022/07/01 07:51:26;;;;;;;;;;;;;;;40.88;10.55;96485.44;6370876;27;19923;-67
2022/07/01 07:54:30;;;;;;;;;;;;;;;42.87;9.54;96494.19;6371994;27;20028;-66
2022/07/01 07:57:39;;;;;;;;;;;;;;;44.25;8.08;96493.00;6372043;27;19924;-67
2022/07/01 08:00:40;;;;;;;;;;;;;;;45.83;7.92;96506.97;6371125;27;20327;-66
2022/07/01 08:03:45;;;;;;;;;;;;;;;47.39;7.43;96503.94;6371148;27;19923;-67
2022/07/01 08:06:50;;;;;;;;;;;;;;;46.65;7.70;96509.31;6371846;27;20006;-68
2022/07/01 08:09:56;;;;;;;;;;;;;;;43.72;9.20;96497.66;6371715;27;19924;-67
2022/07/01 08:13:03;;;;;;;;;;;;;;;40.93;10.31;96490.88;6371367;27;20025;-67
2022/07/01 08:16:05;;;;;;;;;;;;;;;38.40;11.55;96480.56;6371796;27;19923;-68
2022/07/01 08:19:08;;;;;;;;;;;;;;;36.78;12.13;96482.91;6371531;27;19923;-67
2022/07/01 08:22:10;;;;;;;;;;;;;;;35.72;12.92;96475.09;6370405;27;20416;-68
2022/07/01 08:25:13;;;;;;;;;;;;;;;34.55;13.42;96472.56;6370721;27;19931;-68
2022/07/01 08:28:19;;;;;;;;;;;;;;;32.91;14.37;96479.94;6371593;27;19923;-67
2022/07/01 08:31:22;;;;;;;;;;;;;;;31.74;15.28;96474.19;6370777;27;19919;-67
2022/07/01 08:34:24;;;;;;;;;;;;;;;30.81;15.90;96465.19;6370732;27;19923;-68
2022/07/01 08:37:25;;;;;;;;;;;;;;;30.37;16.21;96475.53;6371235;27;19923;-67
2022/07/01 08:40:29;;;;;;;;;;;;;;;30.06;16.03;96474.72;6371091;27;20022;-70
2022/07/01 08:43:31;;;;;;;;;;;;;;;30.06;16.10;96479.34;6371263;27;19927;-67
2022/07/01 08:46:35;;;;;;;;;;;;;;;30.18;16.13;96477.50;6370579;27;19924;-67
2022/07/01 08:49:41;;;;;;;;;;;;;;;30.06;16.26;96480.16;6371201;28;19923;-67
2022/07/01 08:52:45;;;;;;;;;;;;;;;29.69;16.32;96482.16;6370661;28;19924;-68
2022/07/01 08:59:22;;;;;;;;;;;;;;;28.80;17.40;96481.75;6371062;28;20399;-67
2022/07/01 09:02:27;;;;;;;;;;;;;;;28.49;17.92;96488.09;6370321;28;19965;-68
2022/07/01 09:05:29;;;;;;;;;;;;;;;28.08;18.03;96486.69;6370907;28;19930;-67
2022/07/01 09:08:33;;;;;;;;;;;;;;;28.27;17.91;96482.19;6370065;28;19929;-67
2022/07/01 09:11:36;;;;;;;;;;;;;;;28.60;18.02;96488.19;6352344;28;20389;-67
2022/07/01 09:14:39;;;;;;;;;;;;;;;28.61;18.28;96499.81;6371028;28;19924;-67
2022/07/01 09:17:42;;;;;;;;;;;;;;;28.87;18.05;96493.31;6370433;28;19924;-67
2022/07/01 09:20:44;;;;;;;;;;;;;;;29.35;17.81;96494.47;6351925;28;19947;-67
2022/07/01 09:23:48;;;;;;;;;;;;;;;29.59;17.54;96495.44;6369709;28;19923;-67
2022/07/01 09:27:06;;;;;;;;;;;;;;;29.96;17.37;96497.00;6370029;28;19923;-67
2022/07/01 09:30:09;;;;;;;;;;;;;;;30.56;16.86;96495.25;6370585;28;20025;-68
2022/07/01 09:33:16;;;;;;;;;;;;;;;31.10;16.80;96501.41;6370533;28;20495;-67
2022/07/01 09:36:18;;;;;;;;;;;;;;;31.82;16.22;96497.44;6370377;28;20407;-67
2022/07/01 09:39:19;;;;;;;;;;;;;;;32.69;15.86;96501.69;6370432;28;19924;-67
2022/07/01 09:42:26;;;;;;;;;;;;;;;33.43;15.20;96491.31;6370415;28;19923;-67
2022/07/01 09:45:27;;;;;;;;;;;;;;;34.24;14.68;96496.03;6370000;28;20012;-67
2022/07/01 09:48:34;;;;;;;;;;;;;;;34.91;14.27;96499.31;6369221;28;20596;-67
2022/07/01 09:51:56;;;;;;;;;;;;;;;35.85;14.02;96498.41;6370232;28;19923;-67
2022/07/01 09:55:00;;;;;;;;;;;;;;;37.07;13.03;96503.16;6370320;28;19980;-67
2022/07/01 09:58:01;;;;;;;;;;;;;;;37.52;12.75;96495.91;6374284;27;19923;-66
2022/07/01 10:01:02;;;;;;;;;;;;;;;38.10;11.50;96505.50;6373903;27;20441;-67
2022/07/01 10:04:10;;;;;;;;;;;;;;;39.10;11.12;96506.06;6374437;27;19928;-67
2022/07/01 10:07:15;;;;;;;;;;;;;;;38.98;10.90;96515.56;6373261;27;19924;-67
2022/07/01 10:10:16;;;;;;;;;;;;;;;38.98;10.91;96509.22;6373458;27;19927;-67
2022/07/01 10:13:21;;;;;;;;;;;;;;;39.11;10.64;96503.03;6373979;27;19923;-67
2022/07/01 10:16:22;;;;;;;;;;;;;;;38.69;11.19;96493.53;6374394;27;20265;-67
2022/07/01 10:19:27;;;;;;;;;;;;;;;39.70;10.68;96499.06;6374578;27;19927;-67
2022/07/01 10:22:28;;;;;;;;;;;;;;;40.46;9.85;96501.06;6373905;27;19926;-67
2022/07/01 10:25:35;;;;;;;;;;;;;;;40.09;9.81;96497.19;6374261;27;19930;-67
2022/07/01 10:28:38;;;;;;;;;;;;;;;38.47;10.71;96493.16;6375991;27;19923;-67
2022/07/01 10:31:39;;;;;;;;;;;;;;;38.16;10.38;96501.59;6374782;27;20237;-68
2022/07/01 10:34:41;;;;;;;;;;;;;;;37.86;10.65;96497.13;6374905;27;19927;-67
2022/07/01 10:38:00;;;;;;;;;;;;;;;37.00;11.22;96491.63;6376364;27;20019;-68
2022/07/01 10:41:19;;;;;;;;;;;;;;;36.59;11.57;96494.44;6374327;27;19931;-70
2022/07/01 10:44:22;;;;;;;;;;;;;;;36.00;11.34;96488.59;6374064;27;19929;-69
2022/07/01 10:47:25;;;;;;;;;;;;;;;34.81;12.51;96484.47;6373838;27;19930;-68
2022/07/01 10:50:37;;;;;;;;;;;;;;;35.01;12.39;96478.31;6373613;27;19924;-67
2022/07/01 10:53:47;;;;;;;;;;;;;;;35.24;12.36;96488.03;6373867;27;20301;-67
2022/07/01 10:56:51;;;;;;;;;;;;;;;35.19;12.22;96488.03;6374131;27;19923;-68
2022/07/01 11:00:00;;;;;;;;;;;;;;;35.15;11.93;96484.16;6373638;27;20411;-67
2022/07/01 11:03:07;;;;;;;;;;;;;;;34.11;12.46;96483.66;6373523;27;19923;-67
2022/07/01 11:06:10;;;;;;;;;;;;;;;33.48;13.07;96472.25;6373624;27;19930;-68
2022/07/01 11:09:12;;;;;;;;;;;;;;;33.26;13.29;96468.72;6372050;27;19930;-68
2022/07/01 11:12:17;;;;;;;;;;;;;;;32.53;14.06;96466.06;6375224;27;19923;-68
2022/07/01 11:15:20;;;;;;;;;;;;;;;31.74;14.21;96455.97;6373777;27;19923;-68
2022/07/01 11:18:24;;;;;;;;;;;;;;;30.94;15.19;96464.09;6374210;27;20044;-68
2022/07/01 11:21:25;;;;;;;;;;;;;;;30.77;15.01;96448.50;6374580;27;19953;-68
2022/07/01 11:24:31;;;;;;;;;;;;;;;30.59;15.55;96451.34;6372894;27;19924;-67
2022/07/01 11:27:37;;;;;;;;;;;;;;;30.64;15.17;96455.00;6372077;27;20544;-67
2022/07/01 11:30:38;;;;;;;;;;;;;;;30.71;15.27;96454.88;6372692;27;20064;-68
2022/07/01 11:33:48;;;;;;;;;;;;;;;30.38;15.72;96455.47;6372482;27;19919;-68
2022/07/01 11:40:13;;;;;;;;;;;;;;;30.53;15.85;96446.88;6373456;27;20301;-69
2022/07/01 11:43:24;;;;;;;;;;;;;;;30.64;15.60;96451.47;6372967;27;19924;-68
2022/07/01 11:46:27;;;;;;;;;;;;;;;30.69;15.38;96446.16;6371437;27;20409;-68
2022/07/01 11:49:28;;;;;;;;;;;;;;;30.99;15.29;96443.28;6375167;27;19945;-69
2022/07/01 11:52:32;;;;;;;;;;;;;;;31.92;15.01;96444.06;6374321;27;20316;-68
2022/07/01 11:55:35;;;;;;;;;;;;;;;32.92;14.21;96444.25;6372821;27;19923;-67
2022/07/01 11:58:40;;;;;;;;;;;;;;;33.24;13.68;96449.09;6375167;27;19954;-69
2022/07/01 12:01:50;;;;;;;;;;;;;;;33.23;14.06;96452.88;6376188;27;19924;-68
2022/07/01 12:04:52;;;;;;;;;;;;;;;33.25;14.10;96450.72;6374480;27;19927;-69
2022/07/01 12:07:53;;;;;;;;;;;;;;;32.87;14.43;96444.22;6372509;27;19923;-68
2022/07/01 12:10:57;;;;;;;;;;;;;;;32.38;14.41;96442.09;6370864;27;19923;-68
2022/07/01 12:13:59;;;;;;;;;;;;;;;32.03;14.85;96439.63;6372476;27;19927;-68
2022/07/01 12:17:05;;;;;;;;;;;;;;;31.65;15.21;96435.69;6373290;27;19923;-68
2022/07/01 12:20:07;;;;;;;;;;;;;;;30.91;15.56;96435.50;6369825;27;19923;-68
2022/07/01 12:23:14;;;;;;;;;;;;;;;29.79;16.60;96436.34;6352755;27;20312;-68
2022/07/01 12:26:17;;;;;;;;;;;;;;;28.77;17.63;96430.75;6370350;27;19924;-68
2022/07/01 12:29:22;;;;;;;;;;;;;;;28.05;18.23;96442.00;6371107;27;19923;-68
2022/07/01 12:32:25;;;;;;;;;;;;;;;27.79;18.45;96432.22;6370157;27;19923;-67
2022/07/01 12:35:34;;;;;;;;;;;;;;;27.37;18.86;96433.69;6371299;27;19932;-68
2022/07/01 12:38:40;;;;;;;;;;;;;;;27.45;18.68;96425.31;6371220;27;20284;-67
2022/07/01 12:41:49;;;;;;;;;;;;;;;28.11;18.39;96440.28;6371363;27;19977;-67
2022/07/01 12:44:58;;;;;;;;;;;;;;;28.57;17.88;96434.50;6371063;28;19923;-68
2022/07/01 12:48:04;;;;;;;;;;;;;;;28.95;17.71;96435.31;6371247;28;19931;-66
2022/07/01 12:51:05;;;;;;;;;;;;;;;28.52;18.19;96447.84;6370164;28;19973;-68
2022/07/01 12:54:27;;;;;;;;;;;;;;;28.03;18.64;96441.41;6370931;28;19923;-67
2022/07/01 12:57:31;;;;;;;;;;;;;;;28.08;18.81;96441.56;6370684;28;20400;-67
2022/07/01 13:00:33;;;;;;;;;;;;;;;28.04;18.75;96455.75;6352056;28;19923;-67
2022/07/01 13:03:37;;;;;;;;;;;;;;;28.31;18.70;96445.53;6370648;28;19923;-67
2022/07/01 13:06:40;;;;;;;;;;;;;;;28.58;18.54;96436.13;6369634;28;19934;-68
2022/07/01 13:09:43;;;;;;;;;;;;;;;28.06;18.88;96438.25;6370909;28;19923;-67
2022/07/01 13:12:45;;;;;;;;;;;;;;;27.80;19.10;96438.44;6369991;28;20026;-67
2022/07/01 13:15:46;;;;;;;;;;;;;;;27.85;19.06;96441.31;6369824;28;19923;-67
2022/07/01 13:18:50;;;;;;;;;;;;;;;27.89;18.82;96437.16;6369544;28;20423;-68
2022/07/01 13:21:52;;;;;;;;;;;;;;;27.80;19.19;96433.88;6369872;28;19930;-67
2022/07/01 13:24:55;;;;;;;;;;;;;;;27.45;19.85;96436.97;6370656;28;20389;-68
2022/07/01 13:27:59;;;;;;;;;;;;;;;26.97;20.06;96436.53;6370337;28;19923;-67
2022/07/01 13:31:00;;;;;;;;;;;;;;;26.63;20.63;96444.72;6371648;27;19923;-68
2022/07/01 13:34:03;;;;;;;;;;;;;;;26.39;20.59;96440.81;6375724;27;20022;-68
2022/07/01 13:37:06;;;;;;;;;;;;;;;26.11;21.07;96445.59;6357416;27;20009;-68
2022/07/01 13:40:08;;;;;;;;;;;;;;;25.87;21.11;96452.41;6356030;27;20408;-67
2022/07/01 13:43:09;;;;;;;;;;;;;;;25.56;21.74;96437.63;6374625;27;20006;-68
2022/07/01 13:46:16;;;;;;;;;;;;;;;25.21;21.95;96439.63;6373259;27;19930;-68
2022/07/01 13:49:21;;;;;;;;;;;;;;;24.91;22.16;96445.28;6375090;27;20069;-67
2022/07/01 13:52:23;;;;;;;;;;;;;;;24.74;22.44;96438.53;6374998;27;19930;-68
2022/07/01 13:55:30;;;;;;;;;;;;;;;24.48;22.26;96439.22;6374816;27;19923;-67
2022/07/01 13:58:35;;;;;;;;;;;;;;;24.26;22.47;96441.09;6374955;27;20304;-67
2022/07/01 14:01:39;;;;;;;;;;;;;;;24.05;23.01;96442.81;6373464;27;20353;-67
2022/07/01 14:04:42;;;;;;;;;;;;;;;23.75;22.95;96451.06;6374485;27;19949;-67
2022/07/01 14:07:46;;;;;;;;;;;;;;;23.46;23.16;96445.75;6373500;27;19930;-67
2022/07/01 14:10:47;;;;;;;;;;;;;;;23.26;23.35;96446.38;6373884;27;20310;-68
2022/07/01 14:13:50;;;;;;;;;;;;;;;23.29;23.41;96440.63;6373911;27;19924;-67
2022/07/01 14:16:54;;;;;;;;;;;;;;;23.52;23.18;96444.97;6374101;27;20030;-67
2022/07/01 14:19:57;;;;;;;;;;;;;;;23.73;23.38;96452.25;6373543;27;19947;-67
2022/07/01 14:23:00;;;;;;;;;;;;;;;23.66;23.47;96454.84;6373609;27;19930;-67
2022/07/01 14:26:06;;;;;;;;;;;;;;;23.40;23.49;96444.66;6373542;27;19924;-68
2022/07/01 14:29:11;;;;;;;;;;;;;;;23.09;23.88;96444.94;6373498;27;19923;-68
2022/07/01 14:32:14;;;;;;;;;;;;;;;22.88;23.96;96440.31;6373052;27;19930;-68
2022/07/01 14:35:15;;;;;;;;;;;;;;;22.73;24.34;96445.72;6373743;27;19927;-68
2022/07/01 14:38:17;;;;;;;;;;;;;;;22.65;24.05;96440.44;6373593;27;19930;-68
2022/07/01 14:41:18;;;;;;;;;;;;;;;22.62;24.22;96440.81;6372093;27;19966;-68
2022/07/01 14:44:22;;;;;;;;;;;;;;;22.62;24.33;96443.50;6372488;27;20021;-67
2022/07/01 14:47:26;;;;;;;;;;;;;;;22.64;24.24;96447.63;6355609;27;19923;-66
2022/07/01 14:50:27;;;;;;;;;;;;;;;22.68;24.55;96452.66;6373483;27;19923;-67
2022/07/01 14:53:30;;;;;;;;;;;;;;;22.78;24.13;96447.81;6373660;27;19923;-68
2022/07/01 14:56:34;;;;;;;;;;;;;;;22.84;23.95;96453.28;6373631;27;19935;-68
2022/07/01 14:59:37;;;;;;;;;;;;;;;22.88;24.07;96458.28;6373318;27;19976;-68
2022/07/01 15:02:39;;;;;;;;;;;;;;;22.88;24.01;96458.28;6372727;27;20316;-68
2022/07/01 15:05:41;;;;;;;;;;;;;;;22.89;24.14;96454.56;6372757;27;19924;-68
2022/07/01 15:08:45;;;;;;;;;;;;;;;22.86;24.22;96451.22;6375384;27;19923;-68
2022/07/01 15:11:46;;;;;;;;;;;;;;;22.79;24.35;96457.53;6375683;27;20036;-68
2022/07/01 15:14:47;;;;;;;;;;;;;;;22.66;24.60;96452.81;6375743;27;19930;-67
2022/07/01 15:17:49;;;;;;;;;;;;;;;22.53;24.83;96458.84;6375485;27;19930;-68
2022/07/01 15:20:50;;;;;;;;;;;;;;;22.42;24.96;96460.13;6357568;27;19919;-68
2022/07/01 15:23:52;;;;;;;;;;;;;;;22.31;25.11;96457.88;6375165;27;19923;-68
2022/07/01 15:26:53;;;;;;;;;;;;;;;22.21;25.39;96460.00;6375141;27;19930;-67
2022/07/01 15:29:55;;;;;;;;;;;;;;;22.04;25.81;96466.50;6374137;27;19930;-68
2022/07/01 15:33:00;;;;;;;;;;;;;;;21.87;25.72;96455.91;6377187;27;19923;-67
2022/07/01 15:36:06;;;;;;;;;;;;;;;21.69;26.43;96466.13;6374167;27;19927;-68
2022/07/01 15:39:07;;;;;;;;;;;;;;;21.55;26.39;96458.84;6377331;27;19929;-68
2022/07/01 15:42:11;;;;;;;;;;;;;;;21.45;27.04;96467.94;6377184;27;19924;-68
2022/07/01 15:45:14;;;;;;;;;;;;;;;21.36;26.74;96468.97;6376591;27;19927;-68
2022/07/01 15:48:17;;;;;;;;;;;;;;;21.26;27.04;96469.19;6376021;27;19924;-67
2022/07/01 15:51:21;;;;;;;;;;;;;;;21.14;27.20;96475.94;6373871;27;19923;-68
2022/07/01 15:54:22;;;;;;;;;;;;;;;21.02;27.22;96478.19;6370919;27;20361;-67
2022/07/01 15:57:27;;;;;;;;;;;;;;;20.88;27.85;96476.22;6371945;27;19954;-67
2022/07/01 16:00:30;;;;;;;;;;;;;;;20.74;28.16;96484.97;6354156;27;19930;-68
2022/07/01 16:03:35;;;;;;;;;;;;;;;20.56;28.43;96486.03;6376064;27;19923;-69
2022/07/01 16:06:37;;;;;;;;;;;;;;;20.39;28.73;96481.72;6375539;27;19923;-69
2022/07/01 16:09:42;;;;;;;;;;;;;;;20.29;29.51;96491.72;6376054;27;20296;-67
2022/07/01 16:12:48;;;;;;;;;;;;;;;20.09;29.68;96492.09;6376206;27;19923;-69
2022/07/01 16:15:53;;;;;;;;;;;;;;;19.99;29.56;96490.63;6375629;27;19923;-68